createdAt,value
2019-02-19T00:02:24.220Z,100350.51
2019-02-19T00:04:55.577Z,100348.81
2019-02-19T00:07:27.043Z,100341.09
2019-02-19T00:09:58.485Z,100342.24
2019-02-19T00:12:29.918Z,100342.50
2019-02-19T00:15:07.877Z,100342.50
2019-02-19T00:17:34.309Z,100344.58
2019-02-19T00:20:05.695Z,100344.58
2019-02-19T00:22:37.017Z,100343.56
2019-02-19T00:25:08.507Z,100342.52
2019-02-19T00:27:39.933Z,100336.98
2019-02-19T00:30:11.258Z,100343.92
2019-02-19T00:32:42.635Z,100350.40
2019-02-19T00:35:14.351Z,100348.61
2019-02-19T00:37:45.687Z,100352.67
2019-02-19T00:40:17.313Z,100352.95
2019-02-19T00:42:48.638Z,100348.44
2019-02-19T00:45:20.292Z,100344.48
2019-02-19T00:47:51.608Z,100349.93
2019-02-19T00:50:23.121Z,100347.41
2019-02-19T00:52:54.557Z,100348.26
2019-02-19T00:55:26.019Z,100352.22
2019-02-19T00:57:57.467Z,100352.56
2019-02-19T01:00:28.853Z,100353.89
2019-02-19T01:03:00.282Z,100354.07
2019-02-19T01:05:31.715Z,100347.30
2019-02-19T01:08:03.169Z,100353.41
2019-02-19T01:10:34.659Z,100354.92
2019-02-19T01:13:06.089Z,100355.55
2019-02-19T01:15:37.644Z,100353.70
2019-02-19T01:18:09.096Z,100352.27
2019-02-19T01:20:40.533Z,100356.67
2019-02-19T01:23:11.860Z,100359.16
2019-02-19T01:25:43.314Z,100350.66
2019-02-19T01:28:14.641Z,100352.52
2019-02-19T01:30:46.042Z,100355.93
2019-02-19T01:33:17.580Z,100354.25
2019-02-19T01:35:50.170Z,100359.52
2019-02-19T01:38:21.597Z,100357.70
2019-02-19T01:40:53.033Z,100363.06
2019-02-19T01:43:24.372Z,100363.58
2019-02-19T01:45:55.838Z,100365.67
2019-02-19T01:48:27.197Z,100367.70
2019-02-19T01:50:58.500Z,100371.70
2019-02-19T01:53:29.811Z,100372.63
2019-02-19T01:56:01.189Z,100372.27
2019-02-19T01:58:32.527Z,100369.18
2019-02-19T02:01:03.872Z,100374.66
2019-02-19T02:03:35.232Z,100372.70
2019-02-19T02:06:06.738Z,100377.19
2019-02-19T02:08:38.183Z,100374.20
2019-02-19T02:11:09.625Z,100370.98
2019-02-19T02:13:40.942Z,100379.63
2019-02-19T02:16:12.419Z,100381.38
2019-02-19T02:18:43.868Z,100385.80
2019-02-19T02:21:15.310Z,100385.41
2019-02-19T02:23:46.694Z,100390.53
2019-02-19T02:26:18.211Z,100383.06
2019-02-19T02:28:49.663Z,100382.73
2019-02-19T02:31:21.238Z,100385.91
2019-02-19T02:33:52.866Z,100390.44
2019-02-19T02:36:24.241Z,100387.27
2019-02-19T02:38:55.496Z,100391.30
2019-02-19T02:41:26.870Z,100395.30
2019-02-19T02:43:58.198Z,100392.20
2019-02-19T02:46:29.638Z,100397.19
2019-02-19T02:49:01.067Z,100405.26
2019-02-19T02:51:32.522Z,100403.48
2019-02-19T02:54:03.973Z,100401.23
2019-02-19T02:56:35.418Z,100399.88
2019-02-19T02:59:06.719Z,100402.97
2019-02-19T03:01:38.532Z,100417.16
2019-02-19T03:04:09.863Z,100410.59
2019-02-19T03:06:48.581Z,100408.27
2019-02-19T03:09:19.923Z,100412.99
2019-02-19T03:11:51.292Z,100416.98
2019-02-19T03:14:22.683Z,100420.18
2019-02-19T03:16:54.024Z,100415.36
2019-02-19T03:19:25.439Z,100415.67
2019-02-19T03:21:56.933Z,100413.64
2019-02-19T03:24:28.382Z,100417.90
2019-02-19T03:26:59.915Z,100416.44
2019-02-19T03:29:31.345Z,100413.33
2019-02-19T03:32:02.689Z,100407.83
2019-02-19T03:34:34.156Z,100406.16
2019-02-19T03:37:05.489Z,100403.09
2019-02-19T03:39:38.099Z,100408.02
2019-02-19T03:42:09.457Z,100400.34
2019-02-19T03:44:40.824Z,100402.53
2019-02-19T03:47:12.158Z,100404.59
2019-02-19T03:49:43.684Z,100399.26
2019-02-19T03:52:15.113Z,100407.08
2019-02-19T03:54:46.575Z,100406.97
2019-02-19T03:57:18.004Z,100407.45
2019-02-19T03:59:49.451Z,100412.67
2019-02-19T04:02:20.849Z,100415.44
2019-02-19T04:04:52.297Z,100408.19
2019-02-19T04:07:23.675Z,100416.54
2019-02-19T04:09:55.145Z,100418.83
2019-02-19T04:12:26.542Z,100416.67
2019-02-19T04:14:57.857Z,100411.64
2019-02-19T04:17:29.206Z,100420.58
2019-02-19T04:20:00.462Z,100419.94
2019-02-19T04:22:31.527Z,100419.02
2019-02-19T04:25:02.889Z,100430.00
2019-02-19T04:27:34.299Z,100426.72
2019-02-19T04:30:07.459Z,100431.79
2019-02-19T04:32:38.843Z,100436.86
2019-02-19T04:35:10.162Z,100438.27
2019-02-19T04:37:41.506Z,100440.12
2019-02-19T04:40:12.880Z,100448.15
2019-02-19T04:42:44.345Z,100453.55
2019-02-19T04:45:15.707Z,100454.02
2019-02-19T04:47:47.084Z,100452.78
2019-02-19T04:50:19.855Z,100457.33
2019-02-19T04:52:51.223Z,100461.88
2019-02-19T04:55:23.022Z,100467.37
2019-02-19T04:57:54.408Z,100468.68
2019-02-19T05:00:25.805Z,100468.77
2019-02-19T05:02:57.173Z,100469.67
2019-02-19T05:05:28.605Z,100477.33
2019-02-19T05:08:00.040Z,100481.88
2019-02-19T05:10:32.640Z,100488.44
2019-02-19T05:13:04.068Z,100489.09
2019-02-19T05:15:35.499Z,100496.06
2019-02-19T05:18:06.974Z,100499.75
2019-02-19T05:20:38.448Z,100496.84
2019-02-19T05:23:09.972Z,100495.60
2019-02-19T05:25:41.519Z,100500.69
2019-02-19T05:28:13.123Z,100502.73
2019-02-19T05:30:44.519Z,100506.75
2019-02-19T05:33:15.986Z,100511.96
2019-02-19T05:35:47.436Z,100518.36
2019-02-19T05:38:19.005Z,100514.41
2019-02-19T05:40:50.440Z,100523.38
2019-02-19T05:46:26.275Z,100525.72
2019-02-19T05:48:57.721Z,100531.49
2019-02-19T05:51:30.622Z,100531.97
2019-02-19T05:54:02.040Z,100530.89
2019-02-19T05:56:33.446Z,100532.08
2019-02-19T05:59:04.792Z,100534.86
2019-02-19T06:01:36.244Z,100543.39
2019-02-19T06:04:07.776Z,100544.39
2019-02-19T06:06:40.737Z,100541.61
2019-02-19T06:09:12.054Z,100544.92
2019-02-19T06:11:43.403Z,100548.48
2019-02-19T06:14:14.733Z,100549.25
2019-02-19T06:16:46.598Z,100545.88
2019-02-19T06:19:18.314Z,100545.17
2019-02-19T06:21:49.687Z,100542.72
2019-02-19T06:24:21.077Z,100542.28
2019-02-19T06:26:52.501Z,100543.36
2019-02-19T06:29:23.923Z,100543.01
2019-02-19T06:31:55.425Z,100543.95
2019-02-19T06:34:26.768Z,100538.86
2019-02-19T06:36:58.297Z,100544.73
2019-02-19T06:39:29.659Z,100549.15
2019-02-19T06:42:01.037Z,100543.00
2019-02-19T06:44:32.524Z,100543.39
2019-02-19T06:47:06.875Z,100549.03
2019-02-19T06:49:36.933Z,100547.16
2019-02-19T06:52:08.313Z,100547.51
2019-02-19T06:54:39.760Z,100548.41
2019-02-19T06:57:12.142Z,100556.12
2019-02-19T06:59:43.618Z,100554.09
2019-02-19T07:02:16.706Z,100552.05
2019-02-19T07:04:49.139Z,100556.07
2019-02-19T07:07:20.806Z,100552.86
2019-02-19T07:09:52.200Z,100552.47
2019-02-19T07:12:23.705Z,100552.33
2019-02-19T07:14:55.153Z,100547.51
2019-02-19T07:17:26.591Z,100558.45
2019-02-19T07:19:57.876Z,100559.34
2019-02-19T07:22:29.291Z,100549.21
2019-02-19T07:25:01.927Z,100557.60
2019-02-19T07:27:33.428Z,100558.47
2019-02-19T07:30:09.579Z,100558.90
2019-02-19T07:32:40.947Z,100555.77
2019-02-19T07:35:12.440Z,100553.83
2019-02-19T07:37:43.686Z,100565.05
2019-02-19T07:40:14.735Z,100567.86
2019-02-19T07:42:46.092Z,100562.63
2019-02-19T07:45:17.494Z,100565.13
2019-02-19T07:47:48.808Z,100570.94
2019-02-19T07:50:20.209Z,100568.96
2019-02-19T07:52:51.556Z,100566.17
2019-02-19T07:55:22.899Z,100573.61
2019-02-19T07:57:54.405Z,100571.85
2019-02-19T08:00:25.719Z,100572.48
2019-02-19T08:02:57.065Z,100566.39
2019-02-19T08:05:28.562Z,100560.34
2019-02-19T08:08:01.285Z,100561.25
2019-02-19T08:10:32.741Z,100560.38
2019-02-19T08:13:04.092Z,100565.95
2019-02-19T08:15:35.419Z,100562.53
2019-02-19T08:18:06.818Z,100560.85
2019-02-19T08:20:38.224Z,100563.42
2019-02-19T08:23:09.656Z,100569.00
2019-02-19T08:25:41.062Z,100568.30
2019-02-19T08:28:12.391Z,100571.80
2019-02-19T08:30:43.740Z,100575.45
2019-02-19T08:33:15.118Z,100574.72
2019-02-19T08:35:46.530Z,100568.86
2019-02-19T08:38:17.856Z,100565.70
2019-02-19T08:40:49.195Z,100576.30
2019-02-19T08:43:20.613Z,100577.91
2019-02-19T08:45:51.984Z,100568.70
2019-02-19T08:48:23.446Z,100570.27
2019-02-19T08:50:54.811Z,100574.12
2019-02-19T08:53:26.184Z,100572.03
2019-02-19T08:55:57.600Z,100572.55
2019-02-19T08:58:29.039Z,100571.65
2019-02-19T09:01:00.488Z,100571.89
2019-02-19T09:03:31.918Z,100575.16
2019-02-19T09:06:03.345Z,100573.11
2019-02-19T09:08:34.625Z,100576.48
2019-02-19T09:11:06.012Z,100570.34
2019-02-19T09:13:37.355Z,100564.55
2019-02-19T09:16:08.699Z,100560.46
2019-02-19T09:18:40.031Z,100565.89
2019-02-19T09:21:11.641Z,100567.69
2019-02-19T09:23:42.841Z,100567.34
2019-02-19T09:26:14.326Z,100556.95
2019-02-19T09:28:45.715Z,100555.37
2019-02-19T09:31:17.054Z,100555.50
2019-02-19T09:33:48.425Z,100548.13
2019-02-19T09:36:19.709Z,100551.02
2019-02-19T09:38:51.070Z,100547.64
2019-02-19T09:41:22.293Z,100545.20
2019-02-19T09:43:53.614Z,100545.20
2019-02-19T09:46:24.990Z,100538.42
2019-02-19T09:48:56.300Z,100538.42
2019-02-19T09:51:28.713Z,100542.30
2019-02-19T09:54:00.078Z,100537.17
2019-02-19T09:56:31.351Z,100537.70
2019-02-19T09:59:02.629Z,100539.06
2019-02-19T10:01:34.097Z,100532.98
2019-02-19T10:04:05.456Z,100537.17
2019-02-19T10:06:36.832Z,100531.52
2019-02-19T10:09:09.642Z,100532.55
2019-02-19T10:11:40.900Z,100527.39
2019-02-19T10:14:12.220Z,100528.97
2019-02-19T10:16:43.479Z,100526.31
2019-02-19T10:19:14.773Z,100520.22
2019-02-19T10:21:46.224Z,100516.90
2019-02-19T10:24:17.608Z,100520.28
2019-02-19T10:26:49.700Z,100518.49
2019-02-19T10:29:22.665Z,100518.98
2019-02-19T10:31:54.045Z,100514.23
2019-02-19T10:34:25.319Z,100515.48
2019-02-19T10:36:56.542Z,100518.53
2019-02-19T10:39:27.822Z,100510.00
2019-02-19T10:41:59.118Z,100502.60
2019-02-19T10:44:30.359Z,100509.52
2019-02-19T10:47:01.711Z,100505.37
2019-02-19T10:49:33.104Z,100505.55
2019-02-19T10:52:04.418Z,100501.25
2019-02-19T10:54:35.824Z,100500.69
2019-02-19T10:57:07.198Z,100498.53
2019-02-19T10:59:38.529Z,100499.33
2019-02-19T11:02:09.919Z,100502.45
2019-02-19T11:04:41.232Z,100493.84
2019-02-19T11:07:12.564Z,100488.78
2019-02-19T11:09:43.940Z,100493.55
2019-02-19T11:12:15.361Z,100494.80
2019-02-19T11:14:46.738Z,100487.16
2019-02-19T11:17:19.817Z,100491.89
2019-02-19T11:19:51.037Z,100486.51
2019-02-19T11:22:22.435Z,100488.55
2019-02-19T11:24:53.849Z,100490.84
2019-02-19T11:27:25.412Z,100483.86
2019-02-19T11:29:56.851Z,100486.33
2019-02-19T11:32:28.272Z,100486.92
2019-02-19T11:34:59.571Z,100487.52
2019-02-19T11:37:32.103Z,100488.52
2019-02-19T11:40:03.433Z,100485.58
2019-02-19T11:42:34.777Z,100485.95
2019-02-19T11:45:09.380Z,100486.50
2019-02-19T11:47:40.777Z,100486.48
2019-02-19T11:50:13.102Z,100481.34
2019-02-19T11:52:44.431Z,100479.58
2019-02-19T11:55:18.002Z,100478.55
2019-02-19T11:57:49.327Z,100482.69
2019-02-19T12:00:22.263Z,100481.78
2019-02-19T12:02:53.617Z,100476.47
2019-02-19T12:05:24.922Z,100479.02
2019-02-19T12:07:56.233Z,100491.94
2019-02-19T12:10:27.549Z,100480.33
2019-02-19T12:13:00.718Z,100480.73
2019-02-19T12:15:35.272Z,100486.27
2019-02-19T12:18:05.067Z,100479.58
2019-02-19T12:20:36.490Z,100483.53
2019-02-19T12:23:07.699Z,100485.88
2019-02-19T12:25:38.915Z,100480.56
2019-02-19T12:28:10.299Z,100473.54
2019-02-19T12:30:41.531Z,100477.70
2019-02-19T12:33:12.934Z,100479.39
2019-02-19T12:35:44.176Z,100476.81
2019-02-19T12:38:15.441Z,100478.08
2019-02-19T12:40:46.812Z,100465.82
2019-02-19T12:43:18.134Z,100461.25
2019-02-19T12:45:49.525Z,100477.09
2019-02-19T12:48:20.898Z,100470.27
2019-02-19T12:50:53.387Z,100469.72
2019-02-19T12:53:24.834Z,100460.67
2019-02-19T12:55:56.183Z,100464.19
2019-02-19T12:58:27.638Z,100463.94
2019-02-19T13:00:59.005Z,100454.55
2019-02-19T13:03:30.398Z,100457.80
2019-02-19T13:06:01.804Z,100457.84
2019-02-19T13:08:33.297Z,100452.27
2019-02-19T13:11:04.704Z,100455.94
2019-02-19T13:13:36.065Z,100456.79
2019-02-19T13:16:07.411Z,100452.21
2019-02-19T13:18:38.757Z,100441.97
2019-02-19T13:21:10.093Z,100444.09
2019-02-19T13:23:41.493Z,100446.28
2019-02-19T13:26:12.828Z,100443.03
2019-02-19T13:28:44.251Z,100432.76
2019-02-19T13:31:15.603Z,100435.40
2019-02-19T13:33:46.949Z,100438.88
2019-02-19T13:36:18.328Z,100438.20
2019-02-19T13:38:49.663Z,100435.09
2019-02-19T13:41:21.126Z,100436.37
2019-02-19T13:43:52.542Z,100429.86
2019-02-19T13:46:23.910Z,100430.41
2019-02-19T13:48:55.313Z,100424.63
2019-02-19T13:51:26.687Z,100422.02
2019-02-19T13:53:59.568Z,100416.98
2019-02-19T13:56:30.996Z,100421.70
2019-02-19T13:59:02.374Z,100414.22
2019-02-19T14:01:33.801Z,100417.73
2019-02-19T14:04:05.166Z,100417.38
2019-02-19T14:06:36.918Z,100405.58
2019-02-19T14:09:09.249Z,100414.88
2019-02-19T14:11:40.792Z,100402.45
2019-02-19T14:14:13.835Z,100395.27
2019-02-19T14:16:46.731Z,100394.28
2019-02-19T14:19:21.549Z,100394.16
2019-02-19T14:21:54.250Z,100383.23
2019-02-19T14:24:43.513Z,100388.06
2019-02-19T14:27:25.359Z,100387.72
2019-02-19T14:30:16.595Z,100379.27
2019-02-19T14:32:58.783Z,100390.84
2019-02-19T14:35:34.592Z,100377.59
2019-02-19T14:38:16.136Z,100377.48
2019-02-19T14:41:05.135Z,100372.55
2019-02-19T14:43:54.294Z,100376.53
2019-02-19T14:46:36.197Z,100381.10
2019-02-19T14:49:34.099Z,100380.36
2019-02-19T14:51:59.016Z,100373.36
2019-02-19T14:54:48.065Z,100379.63
2019-02-19T14:57:24.042Z,100383.52
2019-02-19T14:59:57.238Z,100376.75
2019-02-19T15:02:46.494Z,100378.91
2019-02-19T15:05:19.476Z,100375.50
2019-02-19T15:08:08.596Z,100369.59
2019-02-19T15:10:57.673Z,100371.27
2019-02-19T15:13:30.577Z,100364.73
2019-02-19T15:16:15.356Z,100370.27
2019-02-19T15:18:54.270Z,100375.41
2019-02-19T15:21:27.172Z,100367.70
2019-02-19T15:24:00.171Z,100369.13
2019-02-19T15:26:36.013Z,100367.45
2019-02-19T15:29:14.578Z,100366.21
2019-02-19T15:31:50.354Z,100360.50
2019-02-19T15:34:41.587Z,100368.44
2019-02-19T15:37:14.536Z,100359.77
2019-02-19T15:40:03.788Z,100359.77
2019-02-19T15:42:36.762Z,100364.78
2019-02-19T15:45:11.031Z,100358.80
2019-02-19T15:47:52.987Z,100366.58
2019-02-19T15:50:41.976Z,100362.95
2019-02-19T15:53:17.828Z,100360.15
2019-02-19T15:56:07.229Z,100370.75
2019-02-19T15:58:46.140Z,100367.47
2019-02-19T16:01:28.343Z,100371.91
2019-02-19T16:04:10.097Z,100370.66
2019-02-19T16:06:43.115Z,100367.55
2019-02-19T16:09:21.836Z,100364.30
2019-02-19T16:12:03.788Z,100363.67
2019-02-19T16:14:36.746Z,100359.66
2019-02-19T16:17:12.470Z,100358.62
2019-02-19T16:19:45.437Z,100361.71
2019-02-19T16:22:18.376Z,100360.98
2019-02-19T16:25:09.154Z,100360.23
2019-02-19T16:27:58.046Z,100357.59
2019-02-19T16:30:47.278Z,100364.23
2019-02-19T16:33:20.220Z,100367.00
2019-02-19T16:35:58.809Z,100360.75
2019-02-19T16:38:44.077Z,100361.71
2019-02-19T16:41:19.777Z,100362.13
2019-02-19T16:43:52.709Z,100351.95
2019-02-19T16:46:37.642Z,100357.02
2019-02-19T16:49:16.501Z,100355.98
2019-02-19T16:51:49.368Z,100357.17
2019-02-19T16:54:27.851Z,100359.71
2019-02-19T16:57:06.722Z,100356.95
2019-02-19T16:59:39.818Z,100349.14
2019-02-19T17:02:28.002Z,100352.28
2019-02-19T17:05:06.585Z,100351.73
2019-02-19T17:07:39.504Z,100348.21
2019-02-19T17:10:28.302Z,100342.45
2019-02-19T17:13:01.263Z,100341.30
2019-02-19T17:15:34.211Z,100337.86
2019-02-19T17:18:13.091Z,100332.11
2019-02-19T17:20:55.134Z,100325.92
2019-02-19T17:23:31.074Z,100324.02
2019-02-19T17:26:16.274Z,100324.54
2019-02-19T17:28:58.198Z,100322.13
2019-02-19T17:31:48.124Z,100307.42
2019-02-19T17:34:29.904Z,100305.75
2019-02-19T17:37:02.905Z,100301.73
2019-02-19T17:39:52.286Z,100297.03
2019-02-19T17:42:25.252Z,100299.20
2019-02-19T17:45:07.210Z,100289.88
2019-02-19T17:47:52.331Z,100292.77
2019-02-19T17:50:41.265Z,100285.94
2019-02-19T17:53:32.133Z,100286.55
2019-02-19T17:56:07.666Z,100280.55
2019-02-19T17:58:57.770Z,100279.34
2019-02-19T18:01:31.064Z,100277.72
2019-02-19T18:04:06.895Z,100270.78
2019-02-19T18:06:39.817Z,100271.75
2019-02-19T18:09:29.287Z,100271.75
2019-02-19T18:12:02.317Z,100264.45
2019-02-19T18:14:35.222Z,100273.65
2019-02-19T18:17:20.009Z,100269.16
2019-02-19T18:19:51.332Z,100263.75
2019-02-19T18:22:22.780Z,100260.94
2019-02-19T18:24:54.202Z,100257.33
2019-02-19T18:27:25.571Z,100251.23
2019-02-19T18:29:56.954Z,100247.28
2019-02-19T18:32:28.322Z,100239.45
2019-02-19T18:34:59.736Z,100249.81
2019-02-19T18:37:31.105Z,100247.36
2019-02-19T18:40:02.580Z,100249.12
2019-02-19T18:42:35.753Z,100257.08
2019-02-19T18:45:08.885Z,100250.13
2019-02-19T18:47:40.222Z,100247.27
2019-02-19T18:50:11.590Z,100247.27
2019-02-19T18:52:42.995Z,100247.20
2019-02-19T18:55:14.325Z,100241.50
2019-02-19T18:57:45.756Z,100240.80
2019-02-19T19:00:17.407Z,100238.72
2019-02-19T19:02:48.787Z,100231.81
2019-02-19T19:05:20.205Z,100230.85
2019-02-19T19:07:51.714Z,100228.09
2019-02-19T19:10:23.057Z,100218.67
2019-02-19T19:12:54.448Z,100223.22
2019-02-19T19:15:25.853Z,100227.66
2019-02-19T19:17:57.312Z,100223.33
2019-02-19T19:20:28.694Z,100224.98
2019-02-19T19:23:00.063Z,100220.27
2019-02-19T19:25:31.479Z,100219.50
2019-02-19T19:28:02.857Z,100215.56
2019-02-19T19:30:34.202Z,100213.87
2019-02-19T19:33:05.708Z,100213.95
2019-02-19T19:35:37.172Z,100216.77
2019-02-19T19:38:08.615Z,100212.67
2019-02-19T19:40:39.979Z,100212.39
2019-02-19T19:43:11.426Z,100217.17
2019-02-19T19:45:42.794Z,100210.14
2019-02-19T19:48:14.196Z,100215.59
2019-02-19T19:50:45.530Z,100208.11
2019-02-19T19:53:16.940Z,100202.89
2019-02-19T19:55:48.272Z,100203.19
2019-02-19T19:58:19.808Z,100204.78
2019-02-19T20:00:51.183Z,100190.64
2019-02-19T20:03:22.596Z,100192.02
2019-02-19T20:05:53.987Z,100192.70
2019-02-19T20:08:25.401Z,100185.95
2019-02-19T20:10:56.952Z,100188.89
2019-02-19T20:13:28.600Z,100186.67
2019-02-19T20:16:00.038Z,100183.43
2019-02-19T20:18:38.944Z,100182.98
2019-02-19T20:21:04.613Z,100181.75
2019-02-19T20:23:36.026Z,100179.35
2019-02-19T20:26:07.484Z,100175.55
2019-02-19T20:28:38.928Z,100167.69
2019-02-19T20:31:10.375Z,100173.19
2019-02-19T20:33:41.769Z,100171.16
2019-02-19T20:36:13.168Z,100181.00
2019-02-19T20:38:44.577Z,100189.69
2019-02-19T20:41:15.980Z,100183.97
2019-02-19T20:43:47.323Z,100191.83
2019-02-19T20:46:18.668Z,100189.09
2019-02-19T20:48:50.027Z,100182.82
2019-02-19T20:51:22.829Z,100178.69
2019-02-19T20:53:54.281Z,100184.35
2019-02-19T20:56:25.748Z,100175.77
2019-02-19T20:58:57.166Z,100179.72
2019-02-19T21:01:28.902Z,100178.33
2019-02-19T21:04:00.313Z,100181.17
2019-02-19T21:06:31.745Z,100172.63
2019-02-19T21:09:03.091Z,100177.45
2019-02-19T21:11:36.159Z,100161.19
2019-02-19T21:14:08.707Z,100161.00
2019-02-19T21:16:40.932Z,100168.80
2019-02-19T21:19:12.335Z,100159.56
2019-02-19T21:21:45.146Z,100166.50
2019-02-19T21:24:17.764Z,100166.64
2019-02-19T21:26:49.244Z,100161.44
2019-02-19T21:29:21.998Z,100159.94
2019-02-19T21:31:53.513Z,100151.27
2019-02-19T21:34:24.943Z,100147.84
2019-02-19T21:36:56.295Z,100141.39
2019-02-19T21:39:27.689Z,100133.50
2019-02-19T21:41:59.304Z,100140.64
2019-02-19T21:44:30.674Z,100137.05
2019-02-19T21:47:02.068Z,100140.50
2019-02-19T21:49:33.471Z,100149.72
2019-02-19T21:52:04.820Z,100147.45
2019-02-19T21:54:36.197Z,100147.75
2019-02-19T21:57:07.715Z,100143.80
2019-02-19T21:59:39.051Z,100138.81
2019-02-19T22:02:16.265Z,100137.80
2019-02-19T22:04:43.493Z,100140.14
2019-02-19T22:07:14.845Z,100133.86
2019-02-19T22:09:46.244Z,100134.72
2019-02-19T22:12:18.629Z,100137.61
2019-02-19T22:14:50.156Z,100129.06
2019-02-19T22:17:21.550Z,100121.56
2019-02-19T22:20:02.543Z,100123.99
2019-02-19T22:22:26.156Z,100115.14
2019-02-19T22:24:57.542Z,100121.17
2019-02-19T22:27:28.894Z,100117.42
2019-02-19T22:30:00.425Z,100106.41
2019-02-19T22:32:31.761Z,100109.19
2019-02-19T22:35:03.121Z,100106.20
2019-02-19T22:37:34.748Z,100110.70
2019-02-19T22:40:08.179Z,100106.35
2019-02-19T22:42:39.884Z,100102.25
2019-02-19T22:45:11.217Z,100095.27
2019-02-19T22:47:42.609Z,100095.48
2019-02-19T22:50:14.044Z,100089.11
2019-02-19T22:52:45.402Z,100096.23
2019-02-19T22:55:36.661Z,100099.98
2019-02-19T22:58:07.997Z,100091.75
2019-02-19T23:00:49.980Z,100088.75
2019-02-19T23:03:27.079Z,100087.39
2019-02-19T23:05:58.462Z,100092.95
2019-02-19T23:08:30.463Z,100090.06
2019-02-19T23:11:01.116Z,100088.66
2019-02-19T23:13:32.309Z,100087.39
2019-02-19T23:16:03.666Z,100078.78
2019-02-19T23:18:35.092Z,100073.19
2019-02-19T23:21:06.430Z,100070.16
2019-02-19T23:23:37.777Z,100072.53
2019-02-19T23:26:09.216Z,100062.84
2019-02-19T23:28:40.589Z,100062.48
2019-02-19T23:31:11.938Z,100065.66
2019-02-19T23:33:43.349Z,100060.97
2019-02-19T23:36:32.814Z,100049.23
2019-02-19T23:39:05.578Z,100054.03
2019-02-19T23:41:38.564Z,100049.27
2019-02-19T23:44:09.977Z,100045.39
2019-02-19T23:46:44.038Z,100050.84
2019-02-19T23:49:15.559Z,100042.30
2019-02-19T23:51:47.140Z,100042.30
2019-02-19T23:54:18.489Z,100030.68
2019-02-19T23:56:49.954Z,100025.88
2019-02-19T23:59:21.341Z,100026.93
